sensor_id;sensor_type;location;lat;lon;timestamp;temperature;humidity
24618;DHT22;12762;51.730;5.356;2023-11-19T00:00:37;14.30;98.90
24618;DHT22;12762;51.730;5.356;2023-11-19T00:03:05;14.30;99.30
24618;DHT22;12762;51.730;5.356;2023-11-19T00:05:35;14.40;98.90
24618;DHT22;12762;51.730;5.356;2023-11-19T00:08:01;14.40;98.90
24618;DHT22;12762;51.730;5.356;2023-11-19T00:10:28;14.40;98.90
24618;DHT22;12762;51.730;5.356;2023-11-19T00:12:55;14.40;98.90
24618;DHT22;12762;51.730;5.356;2023-11-19T00:15:23;14.40;98.90
24618;DHT22;12762;51.730;5.356;2023-11-19T00:17:51;14.40;98.90
24618;DHT22;12762;51.730;5.356;2023-11-19T00:20:18;14.40;98.80
24618;DHT22;12762;51.730;5.356;2023-11-19T00:22:46;14.40;98.80
24618;DHT22;12762;51.730;5.356;2023-11-19T00:25:16;14.40;98.80
24618;DHT22;12762;51.730;5.356;2023-11-19T00:27:43;14.40;98.80
24618;DHT22;12762;51.730;5.356;2023-11-19T00:30:13;14.40;98.70
24618;DHT22;12762;51.730;5.356;2023-11-19T00:32:41;14.50;98.70
24618;DHT22;12762;51.730;5.356;2023-11-19T00:35:09;14.40;98.70
24618;DHT22;12762;51.730;5.356;2023-11-19T00:37:36;14.40;98.60
24618;DHT22;12762;51.730;5.356;2023-11-19T00:40:04;14.50;98.60
24618;DHT22;12762;51.730;5.356;2023-11-19T00:42:32;14.50;98.60
24618;DHT22;12762;51.730;5.356;2023-11-19T00:44:59;14.50;98.50
24618;DHT22;12762;51.730;5.356;2023-11-19T00:47:27;14.50;98.50
24618;DHT22;12762;51.730;5.356;2023-11-19T00:49:54;14.50;98.50
24618;DHT22;12762;51.730;5.356;2023-11-19T00:52:27;14.50;98.50
24618;DHT22;12762;51.730;5.356;2023-11-19T00:54:54;14.50;98.40
24618;DHT22;12762;51.730;5.356;2023-11-19T00:57:21;14.50;98.40
24618;DHT22;12762;51.730;5.356;2023-11-19T00:59:48;14.50;98.40
24618;DHT22;12762;51.730;5.356;2023-11-19T01:02:17;14.50;98.70
24618;DHT22;12762;51.730;5.356;2023-11-19T01:04:47;14.50;98.30
24618;DHT22;12762;51.730;5.356;2023-11-19T01:07:14;14.50;98.20
24618;DHT22;12762;51.730;5.356;2023-11-19T01:09:44;14.40;98.10
24618;DHT22;12762;51.730;5.356;2023-11-19T01:12:11;14.50;98.20
24618;DHT22;12762;51.730;5.356;2023-11-19T01:14:38;14.50;98.10
24618;DHT22;12762;51.730;5.356;2023-11-19T01:17:05;14.50;98.10
24618;DHT22;12762;51.730;5.356;2023-11-19T01:19:35;14.40;98.10
24618;DHT22;12762;51.730;5.356;2023-11-19T01:22:02;14.40;98.00
24618;DHT22;12762;51.730;5.356;2023-11-19T01:24:30;14.40;98.00
24618;DHT22;12762;51.730;5.356;2023-11-19T01:26:58;14.40;98.30
24618;DHT22;12762;51.730;5.356;2023-11-19T01:29:26;14.40;97.90
24618;DHT22;12762;51.730;5.356;2023-11-19T01:31:53;14.40;97.90
24618;DHT22;12762;51.730;5.356;2023-11-19T01:34:20;14.40;97.80
24618;DHT22;12762;51.730;5.356;2023-11-19T01:36:47;14.40;97.80
24618;DHT22;12762;51.730;5.356;2023-11-19T01:39:15;14.40;97.70
24618;DHT22;12762;51.730;5.356;2023-11-19T01:41:46;14.40;97.70
24618;DHT22;12762;51.730;5.356;2023-11-19T01:44:13;14.40;97.70
24618;DHT22;12762;51.730;5.356;2023-11-19T01:46:41;14.40;97.70
24618;DHT22;12762;51.730;5.356;2023-11-19T01:49:08;14.30;97.60
24618;DHT22;12762;51.730;5.356;2023-11-19T01:51:35;14.40;97.60
24618;DHT22;12762;51.730;5.356;2023-11-19T01:54:05;14.30;97.50
24618;DHT22;12762;51.730;5.356;2023-11-19T01:56:32;14.30;97.40
24618;DHT22;12762;51.730;5.356;2023-11-19T01:58:59;14.30;97.40
24618;DHT22;12762;51.730;5.356;2023-11-19T02:01:27;14.30;97.30
24618;DHT22;12762;51.730;5.356;2023-11-19T02:03:57;14.20;97.20
24618;DHT22;12762;51.730;5.356;2023-11-19T02:06:26;14.20;97.10
24618;DHT22;12762;51.730;5.356;2023-11-19T02:08:53;14.20;97.10
24618;DHT22;12762;51.730;5.356;2023-11-19T02:11:20;14.10;97.10
24618;DHT22;12762;51.730;5.356;2023-11-19T02:13:46;14.10;97.10
24618;DHT22;12762;51.730;5.356;2023-11-19T02:16:13;14.10;97.00
24618;DHT22;12762;51.730;5.356;2023-11-19T02:18:43;14.10;97.00
24618;DHT22;12762;51.730;5.356;2023-11-19T02:21:10;14.10;97.30
24618;DHT22;12762;51.730;5.356;2023-11-19T02:23:37;14.00;96.90
24618;DHT22;12762;51.730;5.356;2023-11-19T02:26:18;14.00;96.90
24618;DHT22;12762;51.730;5.356;2023-11-19T02:28:45;14.10;96.90
24618;DHT22;12762;51.730;5.356;2023-11-19T02:31:14;14.00;96.80
24618;DHT22;12762;51.730;5.356;2023-11-19T02:33:41;14.00;96.80
24618;DHT22;12762;51.730;5.356;2023-11-19T02:36:08;14.00;96.70
24618;DHT22;12762;51.730;5.356;2023-11-19T02:38:37;14.00;96.60
24618;DHT22;12762;51.730;5.356;2023-11-19T02:41:04;14.00;96.60
24618;DHT22;12762;51.730;5.356;2023-11-19T02:43:34;14.00;96.50
24618;DHT22;12762;51.730;5.356;2023-11-19T02:46:03;14.00;96.50
24618;DHT22;12762;51.730;5.356;2023-11-19T02:48:41;14.00;96.40
24618;DHT22;12762;51.730;5.356;2023-11-19T02:51:10;14.00;96.40
24618;DHT22;12762;51.730;5.356;2023-11-19T02:53:37;14.00;96.30
24618;DHT22;12762;51.730;5.356;2023-11-19T02:56:05;13.90;96.10
24618;DHT22;12762;51.730;5.356;2023-11-19T02:58:53;13.90;96.10
24618;DHT22;12762;51.730;5.356;2023-11-19T03:01:26;13.90;96.00
24618;DHT22;12762;51.730;5.356;2023-11-19T03:04:01;13.90;96.00
24618;DHT22;12762;51.730;5.356;2023-11-19T03:06:30;13.80;95.90
24618;DHT22;12762;51.730;5.356;2023-11-19T03:08:56;13.80;95.90
24618;DHT22;12762;51.730;5.356;2023-11-19T03:11:23;13.70;96.10
24618;DHT22;12762;51.730;5.356;2023-11-19T03:13:51;13.60;95.80
24618;DHT22;12762;51.730;5.356;2023-11-19T03:16:21;13.60;95.70
24618;DHT22;12762;51.730;5.356;2023-11-19T03:18:48;13.50;95.70
24618;DHT22;12762;51.730;5.356;2023-11-19T03:21:14;13.60;95.80
24618;DHT22;12762;51.730;5.356;2023-11-19T03:23:41;13.50;95.70
24618;DHT22;12762;51.730;5.356;2023-11-19T03:26:10;13.40;95.70
24618;DHT22;12762;51.730;5.356;2023-11-19T03:28:37;13.40;95.70
24618;DHT22;12762;51.730;5.356;2023-11-19T03:31:07;13.40;95.70
24618;DHT22;12762;51.730;5.356;2023-11-19T03:33:36;13.40;95.70
24618;DHT22;12762;51.730;5.356;2023-11-19T03:36:04;13.30;95.60
24618;DHT22;12762;51.730;5.356;2023-11-19T03:38:31;13.20;95.60
24618;DHT22;12762;51.730;5.356;2023-11-19T03:40:58;13.20;95.60
24618;DHT22;12762;51.730;5.356;2023-11-19T03:43:25;13.20;95.50
24618;DHT22;12762;51.730;5.356;2023-11-19T03:45:52;13.10;95.50
24618;DHT22;12762;51.730;5.356;2023-11-19T03:48:19;13.10;95.50
24618;DHT22;12762;51.730;5.356;2023-11-19T03:50:46;13.10;95.40
24618;DHT22;12762;51.730;5.356;2023-11-19T03:53:12;13.10;95.40
24618;DHT22;12762;51.730;5.356;2023-11-19T03:55:40;13.10;95.40
24618;DHT22;12762;51.730;5.356;2023-11-19T03:58:06;13.00;95.30
24618;DHT22;12762;51.730;5.356;2023-11-19T04:00:33;13.00;95.60
24618;DHT22;12762;51.730;5.356;2023-11-19T04:03:00;13.00;95.20
24618;DHT22;12762;51.730;5.356;2023-11-19T04:05:27;12.90;95.00
24618;DHT22;12762;51.730;5.356;2023-11-19T04:07:54;13.00;95.10
24618;DHT22;12762;51.730;5.356;2023-11-19T04:10:20;12.90;95.00
24618;DHT22;12762;51.730;5.356;2023-11-19T04:12:49;13.00;95.00
24618;DHT22;12762;51.730;5.356;2023-11-19T04:15:16;12.90;94.90
24618;DHT22;12762;51.730;5.356;2023-11-19T04:17:43;12.90;94.80
24618;DHT22;12762;51.730;5.356;2023-11-19T04:20:10;12.90;94.80
24618;DHT22;12762;51.730;5.356;2023-11-19T04:22:40;12.90;94.80
24618;DHT22;12762;51.730;5.356;2023-11-19T04:25:07;12.90;94.80
24618;DHT22;12762;51.730;5.356;2023-11-19T04:27:35;12.90;94.70
24618;DHT22;12762;51.730;5.356;2023-11-19T04:30:02;12.90;94.70
24618;DHT22;12762;51.730;5.356;2023-11-19T04:32:30;12.90;94.70
24618;DHT22;12762;51.730;5.356;2023-11-19T04:34:56;12.80;94.70
24618;DHT22;12762;51.730;5.356;2023-11-19T04:37:26;12.80;94.60
24618;DHT22;12762;51.730;5.356;2023-11-19T04:39:53;12.80;94.60
24618;DHT22;12762;51.730;5.356;2023-11-19T04:42:22;12.80;94.60
24618;DHT22;12762;51.730;5.356;2023-11-19T04:44:49;12.80;94.60
24618;DHT22;12762;51.730;5.356;2023-11-19T04:47:16;12.80;94.50
24618;DHT22;12762;51.730;5.356;2023-11-19T04:49:43;12.80;94.50
24618;DHT22;12762;51.730;5.356;2023-11-19T04:52:10;12.80;94.50
24618;DHT22;12762;51.730;5.356;2023-11-19T04:54:42;12.80;94.40
24618;DHT22;12762;51.730;5.356;2023-11-19T04:57:12;12.80;94.40
24618;DHT22;12762;51.730;5.356;2023-11-19T04:59:39;12.80;94.30
24618;DHT22;12762;51.730;5.356;2023-11-19T05:02:06;12.80;94.30
24618;DHT22;12762;51.730;5.356;2023-11-19T05:04:33;12.80;94.20
24618;DHT22;12762;51.730;5.356;2023-11-19T05:07:00;12.80;94.20
24618;DHT22;12762;51.730;5.356;2023-11-19T05:09:27;12.70;94.10
24618;DHT22;12762;51.730;5.356;2023-11-19T05:11:54;12.70;94.00
24618;DHT22;12762;51.730;5.356;2023-11-19T05:14:20;12.70;94.00
24618;DHT22;12762;51.730;5.356;2023-11-19T05:16:48;12.70;94.00
24618;DHT22;12762;51.730;5.356;2023-11-19T05:19:18;12.60;94.00
24618;DHT22;12762;51.730;5.356;2023-11-19T05:21:45;12.70;94.00
24618;DHT22;12762;51.730;5.356;2023-11-19T05:24:12;12.60;93.90
24618;DHT22;12762;51.730;5.356;2023-11-19T05:26:39;12.60;93.80
24618;DHT22;12762;51.730;5.356;2023-11-19T05:29:08;12.60;93.80
24618;DHT22;12762;51.730;5.356;2023-11-19T05:31:35;12.60;93.80
24618;DHT22;12762;51.730;5.356;2023-11-19T05:34:06;12.60;93.80
24618;DHT22;12762;51.730;5.356;2023-11-19T05:36:34;12.60;93.80
24618;DHT22;12762;51.730;5.356;2023-11-19T05:39:00;12.50;93.70
24618;DHT22;12762;51.730;5.356;2023-11-19T05:41:27;12.50;93.70
24618;DHT22;12762;51.730;5.356;2023-11-19T05:43:54;12.50;93.70
24618;DHT22;12762;51.730;5.356;2023-11-19T05:46:21;12.50;93.70
24618;DHT22;12762;51.730;5.356;2023-11-19T05:48:49;12.50;93.90
24618;DHT22;12762;51.730;5.356;2023-11-19T05:51:15;12.50;93.70
24618;DHT22;12762;51.730;5.356;2023-11-19T05:53:42;12.50;93.70
24618;DHT22;12762;51.730;5.356;2023-11-19T05:56:09;12.50;93.70
24618;DHT22;12762;51.730;5.356;2023-11-19T05:58:40;12.50;93.70
24618;DHT22;12762;51.730;5.356;2023-11-19T06:01:07;12.50;93.70
24618;DHT22;12762;51.730;5.356;2023-11-19T06:03:35;12.50;93.70
24618;DHT22;12762;51.730;5.356;2023-11-19T06:06:02;12.50;93.60
24618;DHT22;12762;51.730;5.356;2023-11-19T06:08:29;12.50;93.60
24618;DHT22;12762;51.730;5.356;2023-11-19T06:10:57;12.50;93.60
24618;DHT22;12762;51.730;5.356;2023-11-19T06:13:24;12.50;93.60
24618;DHT22;12762;51.730;5.356;2023-11-19T06:15:52;12.40;93.60
24618;DHT22;12762;51.730;5.356;2023-11-19T06:18:20;12.40;93.60
24618;DHT22;12762;51.730;5.356;2023-11-19T06:20:47;12.40;93.60
24618;DHT22;12762;51.730;5.356;2023-11-19T06:23:14;12.40;93.60
24618;DHT22;12762;51.730;5.356;2023-11-19T06:25:41;12.40;93.60
24618;DHT22;12762;51.730;5.356;2023-11-19T06:28:08;12.40;93.60
24618;DHT22;12762;51.730;5.356;2023-11-19T06:30:35;12.30;93.50
24618;DHT22;12762;51.730;5.356;2023-11-19T06:33:02;12.30;93.50
24618;DHT22;12762;51.730;5.356;2023-11-19T06:35:30;12.30;93.50
24618;DHT22;12762;51.730;5.356;2023-11-19T06:38:03;12.30;93.50
24618;DHT22;12762;51.730;5.356;2023-11-19T06:40:34;12.30;93.50
24618;DHT22;12762;51.730;5.356;2023-11-19T06:43:02;12.30;93.50
24618;DHT22;12762;51.730;5.356;2023-11-19T06:45:30;12.30;93.50
24618;DHT22;12762;51.730;5.356;2023-11-19T06:47:57;12.30;93.50
24618;DHT22;12762;51.730;5.356;2023-11-19T06:50:25;12.30;93.50
24618;DHT22;12762;51.730;5.356;2023-11-19T06:52:52;12.20;93.40
24618;DHT22;12762;51.730;5.356;2023-11-19T06:55:18;12.20;93.40
24618;DHT22;12762;51.730;5.356;2023-11-19T06:57:45;12.20;93.40
24618;DHT22;12762;51.730;5.356;2023-11-19T07:00:12;12.20;93.40
24618;DHT22;12762;51.730;5.356;2023-11-19T07:02:39;12.20;93.40
24618;DHT22;12762;51.730;5.356;2023-11-19T07:05:06;12.20;93.50
24618;DHT22;12762;51.730;5.356;2023-11-19T07:07:34;12.30;93.40
24618;DHT22;12762;51.730;5.356;2023-11-19T07:10:02;12.20;93.40
24618;DHT22;12762;51.730;5.356;2023-11-19T07:12:37;12.30;93.40
24618;DHT22;12762;51.730;5.356;2023-11-19T07:15:06;12.20;93.30
24618;DHT22;12762;51.730;5.356;2023-11-19T07:17:33;12.30;93.40
24618;DHT22;12762;51.730;5.356;2023-11-19T07:20:01;12.30;93.40
24618;DHT22;12762;51.730;5.356;2023-11-19T07:22:28;12.30;93.30
24618;DHT22;12762;51.730;5.356;2023-11-19T07:24:58;12.30;93.30
24618;DHT22;12762;51.730;5.356;2023-11-19T07:27:25;12.30;93.30
24618;DHT22;12762;51.730;5.356;2023-11-19T07:29:52;12.30;93.30
24618;DHT22;12762;51.730;5.356;2023-11-19T07:32:19;12.30;93.30
24618;DHT22;12762;51.730;5.356;2023-11-19T07:34:46;12.30;93.30
24618;DHT22;12762;51.730;5.356;2023-11-19T07:37:12;12.30;93.20
24618;DHT22;12762;51.730;5.356;2023-11-19T07:39:39;12.40;93.20
24618;DHT22;12762;51.730;5.356;2023-11-19T07:42:07;12.40;93.20
24618;DHT22;12762;51.730;5.356;2023-11-19T07:44:38;12.40;93.10
24618;DHT22;12762;51.730;5.356;2023-11-19T07:47:05;12.40;93.10
24618;DHT22;12762;51.730;5.356;2023-11-19T07:49:32;12.40;93.10
24618;DHT22;12762;51.730;5.356;2023-11-19T07:51:59;12.40;93.10
24618;DHT22;12762;51.730;5.356;2023-11-19T07:54:26;12.40;93.00
24618;DHT22;12762;51.730;5.356;2023-11-19T07:56:52;12.40;93.00
24618;DHT22;12762;51.730;5.356;2023-11-19T07:59:22;12.50;93.00
24618;DHT22;12762;51.730;5.356;2023-11-19T08:01:56;12.50;92.90
24618;DHT22;12762;51.730;5.356;2023-11-19T08:04:24;12.50;92.90
24618;DHT22;12762;51.730;5.356;2023-11-19T08:06:51;12.50;92.90
24618;DHT22;12762;51.730;5.356;2023-11-19T08:09:20;12.60;92.80
24618;DHT22;12762;51.730;5.356;2023-11-19T08:11:47;12.60;92.80
24618;DHT22;12762;51.730;5.356;2023-11-19T08:14:14;12.60;92.70
24618;DHT22;12762;51.730;5.356;2023-11-19T08:16:40;12.60;92.70
24618;DHT22;12762;51.730;5.356;2023-11-19T08:19:07;12.60;92.60
24618;DHT22;12762;51.730;5.356;2023-11-19T08:21:35;12.70;92.60
24618;DHT22;12762;51.730;5.356;2023-11-19T08:24:01;12.80;92.70
24618;DHT22;12762;51.730;5.356;2023-11-19T08:26:28;13.00;92.70
24618;DHT22;12762;51.730;5.356;2023-11-19T08:28:55;13.20;92.50
24618;DHT22;12762;51.730;5.356;2023-11-19T08:31:24;13.40;92.30
24618;DHT22;12762;51.730;5.356;2023-11-19T08:33:52;13.50;91.90
24618;DHT22;12762;51.730;5.356;2023-11-19T08:36:18;13.70;91.90
24618;DHT22;12762;51.730;5.356;2023-11-19T08:38:46;13.70;91.50
24618;DHT22;12762;51.730;5.356;2023-11-19T08:41:13;13.70;91.30
24618;DHT22;12762;51.730;5.356;2023-11-19T08:43:40;13.80;91.40
24618;DHT22;12762;51.730;5.356;2023-11-19T08:46:11;13.70;91.20
24618;DHT22;12762;51.730;5.356;2023-11-19T08:48:38;13.60;90.90
24618;DHT22;12762;51.730;5.356;2023-11-19T08:51:06;13.70;91.10
24618;DHT22;12762;51.730;5.356;2023-11-19T08:53:33;13.80;91.10
24618;DHT22;12762;51.730;5.356;2023-11-19T08:56:00;13.80;91.40
24618;DHT22;12762;51.730;5.356;2023-11-19T08:58:29;13.70;90.80
24618;DHT22;12762;51.730;5.356;2023-11-19T09:00:57;13.70;90.90
24618;DHT22;12762;51.730;5.356;2023-11-19T09:03:25;13.70;90.80
24618;DHT22;12762;51.730;5.356;2023-11-19T09:05:57;13.60;90.80
24618;DHT22;12762;51.730;5.356;2023-11-19T09:08:24;13.60;90.80
24618;DHT22;12762;51.730;5.356;2023-11-19T09:10:52;13.50;90.70
24618;DHT22;12762;51.730;5.356;2023-11-19T09:13:19;13.50;90.80
24618;DHT22;12762;51.730;5.356;2023-11-19T09:15:45;13.50;90.90
24618;DHT22;12762;51.730;5.356;2023-11-19T09:18:12;13.50;90.80
24618;DHT22;12762;51.730;5.356;2023-11-19T09:20:39;13.50;90.80
24618;DHT22;12762;51.730;5.356;2023-11-19T09:23:06;13.50;90.80
24618;DHT22;12762;51.730;5.356;2023-11-19T09:25:35;13.50;90.90
24618;DHT22;12762;51.730;5.356;2023-11-19T09:28:05;13.60;90.90
24618;DHT22;12762;51.730;5.356;2023-11-19T09:30:32;13.60;90.80
24618;DHT22;12762;51.730;5.356;2023-11-19T09:33:02;13.70;90.90
24618;DHT22;12762;51.730;5.356;2023-11-19T09:35:31;13.70;90.80
24618;DHT22;12762;51.730;5.356;2023-11-19T09:37:58;13.70;90.70
24618;DHT22;12762;51.730;5.356;2023-11-19T09:40:28;13.70;90.70
24618;DHT22;12762;51.730;5.356;2023-11-19T09:42:55;13.70;90.70
24618;DHT22;12762;51.730;5.356;2023-11-19T09:45:27;13.80;90.80
24618;DHT22;12762;51.730;5.356;2023-11-19T09:47:57;13.90;90.70
24618;DHT22;12762;51.730;5.356;2023-11-19T09:50:26;14.00;90.70
24618;DHT22;12762;51.730;5.356;2023-11-19T09:52:53;14.10;90.60
24618;DHT22;12762;51.730;5.356;2023-11-19T09:55:20;14.10;90.40
24618;DHT22;12762;51.730;5.356;2023-11-19T09:57:48;14.10;90.30
24618;DHT22;12762;51.730;5.356;2023-11-19T10:00:17;14.10;90.20
24618;DHT22;12762;51.730;5.356;2023-11-19T10:02:46;14.10;90.20
24618;DHT22;12762;51.730;5.356;2023-11-19T10:05:14;14.10;90.20
24618;DHT22;12762;51.730;5.356;2023-11-19T10:07:42;14.20;90.20
24618;DHT22;12762;51.730;5.356;2023-11-19T10:10:09;14.20;90.10
24618;DHT22;12762;51.730;5.356;2023-11-19T10:12:40;14.30;90.10
24618;DHT22;12762;51.730;5.356;2023-11-19T10:15:24;14.30;89.90
24618;DHT22;12762;51.730;5.356;2023-11-19T10:17:56;14.40;89.40
24618;DHT22;12762;51.730;5.356;2023-11-19T10:20:24;14.40;89.40
24618;DHT22;12762;51.730;5.356;2023-11-19T10:22:55;14.40;89.30
24618;DHT22;12762;51.730;5.356;2023-11-19T10:25:26;14.50;89.00
24618;DHT22;12762;51.730;5.356;2023-11-19T10:27:54;14.50;89.00
24618;DHT22;12762;51.730;5.356;2023-11-19T10:30:22;14.40;88.70
24618;DHT22;12762;51.730;5.356;2023-11-19T10:35:34;14.40;88.60
24618;DHT22;12762;51.730;5.356;2023-11-19T10:38:16;14.40;88.30
24618;DHT22;12762;51.730;5.356;2023-11-19T10:40:43;14.40;88.30
24618;DHT22;12762;51.730;5.356;2023-11-19T10:43:13;14.40;88.20
24618;DHT22;12762;51.730;5.356;2023-11-19T10:45:40;14.40;88.10
24618;DHT22;12762;51.730;5.356;2023-11-19T10:48:07;14.40;87.80
24618;DHT22;12762;51.730;5.356;2023-11-19T10:50:38;14.50;88.00
24618;DHT22;12762;51.730;5.356;2023-11-19T10:53:06;14.50;87.90
24618;DHT22;12762;51.730;5.356;2023-11-19T10:55:37;14.60;87.20
24618;DHT22;12762;51.730;5.356;2023-11-19T10:58:08;14.70;87.50
24618;DHT22;12762;51.730;5.356;2023-11-19T11:00:48;14.70;87.20
24618;DHT22;12762;51.730;5.356;2023-11-19T11:03:18;14.70;87.00
24618;DHT22;12762;51.730;5.356;2023-11-19T11:05:50;14.80;87.00
24618;DHT22;12762;51.730;5.356;2023-11-19T11:08:19;14.80;86.90
24618;DHT22;12762;51.730;5.356;2023-11-19T11:10:55;14.70;86.80
24618;DHT22;12762;51.730;5.356;2023-11-19T11:13:24;14.70;86.80
24618;DHT22;12762;51.730;5.356;2023-11-19T11:15:52;14.80;87.00
24618;DHT22;12762;51.730;5.356;2023-11-19T11:18:21;14.80;86.90
24618;DHT22;12762;51.730;5.356;2023-11-19T11:20:50;14.80;86.70
24618;DHT22;12762;51.730;5.356;2023-11-19T11:23:39;14.80;86.40
24618;DHT22;12762;51.730;5.356;2023-11-19T11:29:14;14.70;86.30
24618;DHT22;12762;51.730;5.356;2023-11-19T11:35:01;14.70;86.40
24618;DHT22;12762;51.730;5.356;2023-11-19T11:37:44;14.80;86.20
24618;DHT22;12762;51.730;5.356;2023-11-19T11:40:17;14.80;86.10
24618;DHT22;12762;51.730;5.356;2023-11-19T11:42:46;14.80;85.70
24618;DHT22;12762;51.730;5.356;2023-11-19T11:45:14;14.80;85.70
24618;DHT22;12762;51.730;5.356;2023-11-19T11:50:18;14.70;85.30
24618;DHT22;12762;51.730;5.356;2023-11-19T11:55:35;14.70;85.10
24618;DHT22;12762;51.730;5.356;2023-11-19T11:58:03;14.60;85.10
24618;DHT22;12762;51.730;5.356;2023-11-19T12:00:32;14.60;85.00
24618;DHT22;12762;51.730;5.356;2023-11-19T12:03:05;14.50;85.00
24618;DHT22;12762;51.730;5.356;2023-11-19T12:05:38;14.50;85.00
24618;DHT22;12762;51.730;5.356;2023-11-19T12:08:06;14.50;85.10
24618;DHT22;12762;51.730;5.356;2023-11-19T12:10:47;14.50;85.10
24618;DHT22;12762;51.730;5.356;2023-11-19T12:13:15;14.50;84.80
24618;DHT22;12762;51.730;5.356;2023-11-19T12:18:31;14.40;85.30
24618;DHT22;12762;51.730;5.356;2023-11-19T12:20:59;14.40;85.50
24618;DHT22;12762;51.730;5.356;2023-11-19T12:23:30;14.50;85.40
24618;DHT22;12762;51.730;5.356;2023-11-19T12:25:57;14.40;85.30
24618;DHT22;12762;51.730;5.356;2023-11-19T12:28:25;14.40;85.30
24618;DHT22;12762;51.730;5.356;2023-11-19T12:31:07;14.50;85.50
24618;DHT22;12762;51.730;5.356;2023-11-19T12:33:38;14.50;85.60
24618;DHT22;12762;51.730;5.356;2023-11-19T12:36:08;14.60;85.60
24618;DHT22;12762;51.730;5.356;2023-11-19T12:38:36;14.70;85.70
24618;DHT22;12762;51.730;5.356;2023-11-19T12:41:09;14.80;85.40
24618;DHT22;12762;51.730;5.356;2023-11-19T12:43:38;14.90;85.40
24618;DHT22;12762;51.730;5.356;2023-11-19T12:46:18;15.10;85.50
24618;DHT22;12762;51.730;5.356;2023-11-19T12:48:56;15.10;85.00
24618;DHT22;12762;51.730;5.356;2023-11-19T12:51:22;15.10;84.50
24618;DHT22;12762;51.730;5.356;2023-11-19T12:53:57;15.10;84.70
24618;DHT22;12762;51.730;5.356;2023-11-19T12:56:25;15.10;84.70
24618;DHT22;12762;51.730;5.356;2023-11-19T12:58:51;15.10;84.60
24618;DHT22;12762;51.730;5.356;2023-11-19T13:01:19;15.10;84.10
24618;DHT22;12762;51.730;5.356;2023-11-19T13:03:47;15.10;84.20
24618;DHT22;12762;51.730;5.356;2023-11-19T13:06:18;15.00;84.20
24618;DHT22;12762;51.730;5.356;2023-11-19T13:08:49;15.00;84.30
24618;DHT22;12762;51.730;5.356;2023-11-19T13:11:32;14.90;84.30
24618;DHT22;12762;51.730;5.356;2023-11-19T13:14:05;14.80;84.40
24618;DHT22;12762;51.730;5.356;2023-11-19T13:16:36;14.70;84.80
24618;DHT22;12762;51.730;5.356;2023-11-19T13:19:04;14.60;85.10
24618;DHT22;12762;51.730;5.356;2023-11-19T13:21:34;14.50;85.50
24618;DHT22;12762;51.730;5.356;2023-11-19T13:24:01;14.30;85.80
24618;DHT22;12762;51.730;5.356;2023-11-19T13:26:28;14.30;86.30
24618;DHT22;12762;51.730;5.356;2023-11-19T13:28:54;14.20;86.70
24618;DHT22;12762;51.730;5.356;2023-11-19T13:31:21;14.20;87.00
24618;DHT22;12762;51.730;5.356;2023-11-19T13:33:49;14.10;87.20
24618;DHT22;12762;51.730;5.356;2023-11-19T13:36:16;14.10;87.50
24618;DHT22;12762;51.730;5.356;2023-11-19T13:38:43;14.30;88.00
24618;DHT22;12762;51.730;5.356;2023-11-19T13:41:11;14.40;87.80
24618;DHT22;12762;51.730;5.356;2023-11-19T13:43:39;14.40;87.50
24618;DHT22;12762;51.730;5.356;2023-11-19T13:46:09;14.30;87.40
24618;DHT22;12762;51.730;5.356;2023-11-19T13:48:39;14.30;87.50
24618;DHT22;12762;51.730;5.356;2023-11-19T13:51:06;14.20;87.40
24618;DHT22;12762;51.730;5.356;2023-11-19T13:53:33;14.20;87.60
24618;DHT22;12762;51.730;5.356;2023-11-19T13:56:03;14.20;87.60
24618;DHT22;12762;51.730;5.356;2023-11-19T13:58:30;14.20;87.70
24618;DHT22;12762;51.730;5.356;2023-11-19T14:00:57;14.10;87.70
24618;DHT22;12762;51.730;5.356;2023-11-19T14:03:24;14.10;87.60
24618;DHT22;12762;51.730;5.356;2023-11-19T14:05:51;14.10;87.70
24618;DHT22;12762;51.730;5.356;2023-11-19T14:08:21;14.10;87.80
24618;DHT22;12762;51.730;5.356;2023-11-19T14:10:52;14.10;87.80
24618;DHT22;12762;51.730;5.356;2023-11-19T14:13:22;14.00;87.70
24618;DHT22;12762;51.730;5.356;2023-11-19T14:15:49;14.00;87.80
24618;DHT22;12762;51.730;5.356;2023-11-19T14:18:17;14.00;87.80
24618;DHT22;12762;51.730;5.356;2023-11-19T14:20:44;14.00;87.80
24618;DHT22;12762;51.730;5.356;2023-11-19T14:23:11;14.00;87.80
24618;DHT22;12762;51.730;5.356;2023-11-19T14:25:37;14.00;87.80
24618;DHT22;12762;51.730;5.356;2023-11-19T14:28:04;14.00;87.80
24618;DHT22;12762;51.730;5.356;2023-11-19T14:30:33;13.90;87.70
24618;DHT22;12762;51.730;5.356;2023-11-19T14:33:01;13.90;87.70
24618;DHT22;12762;51.730;5.356;2023-11-19T14:35:28;13.90;88.50
24618;DHT22;12762;51.730;5.356;2023-11-19T14:37:57;13.90;87.70
24618;DHT22;12762;51.730;5.356;2023-11-19T14:40:24;13.80;87.60
24618;DHT22;12762;51.730;5.356;2023-11-19T14:43:11;13.80;87.70
24618;DHT22;12762;51.730;5.356;2023-11-19T14:45:38;13.80;87.80
24618;DHT22;12762;51.730;5.356;2023-11-19T14:48:16;13.80;87.80
24618;DHT22;12762;51.730;5.356;2023-11-19T14:50:44;13.80;87.80
24618;DHT22;12762;51.730;5.356;2023-11-19T14:53:11;13.80;87.70
24618;DHT22;12762;51.730;5.356;2023-11-19T14:55:38;13.80;87.60
24618;DHT22;12762;51.730;5.356;2023-11-19T14:58:07;13.90;87.70
24618;DHT22;12762;51.730;5.356;2023-11-19T15:00:38;13.80;87.50
24618;DHT22;12762;51.730;5.356;2023-11-19T15:03:08;13.80;87.50
24618;DHT22;12762;51.730;5.356;2023-11-19T15:05:36;13.80;87.60
24618;DHT22;12762;51.730;5.356;2023-11-19T15:08:02;13.80;87.60
24618;DHT22;12762;51.730;5.356;2023-11-19T15:10:32;13.80;87.60
24618;DHT22;12762;51.730;5.356;2023-11-19T15:12:59;13.80;87.70
24618;DHT22;12762;51.730;5.356;2023-11-19T15:15:26;13.80;87.60
24618;DHT22;12762;51.730;5.356;2023-11-19T15:17:56;13.80;87.70
24618;DHT22;12762;51.730;5.356;2023-11-19T15:20:22;13.80;87.70
24618;DHT22;12762;51.730;5.356;2023-11-19T15:22:49;13.80;87.80
24618;DHT22;12762;51.730;5.356;2023-11-19T15:25:16;13.80;87.80
24618;DHT22;12762;51.730;5.356;2023-11-19T15:27:43;13.70;87.70
24618;DHT22;12762;51.730;5.356;2023-11-19T15:30:12;13.70;87.80
24618;DHT22;12762;51.730;5.356;2023-11-19T15:32:39;13.70;87.80
24618;DHT22;12762;51.730;5.356;2023-11-19T15:35:08;13.70;87.70
24618;DHT22;12762;51.730;5.356;2023-11-19T15:37:37;13.70;87.80
24618;DHT22;12762;51.730;5.356;2023-11-19T15:40:10;13.70;87.80
24618;DHT22;12762;51.730;5.356;2023-11-19T15:42:39;13.70;87.80
24618;DHT22;12762;51.730;5.356;2023-11-19T15:45:07;13.60;87.70
24618;DHT22;12762;51.730;5.356;2023-11-19T15:47:33;13.60;87.60
24618;DHT22;12762;51.730;5.356;2023-11-19T15:50:04;13.60;87.50
24618;DHT22;12762;51.730;5.356;2023-11-19T15:52:34;13.60;87.50
24618;DHT22;12762;51.730;5.356;2023-11-19T15:55:09;13.60;87.40